< < Back
Terminal Aerodrome Forecast


Current Version              Previous Versions:   1  2  3  4  5  6  7  8  9  

Terminal Aerodrome Forecast

780
FTUS42 KTAE 182300
TAFVLD
TAF
KVLD 182320Z 1900/1924 VRB03KT P6SM SCT100 BKN250
     FM191500 04004KT P6SM BKN060 OVC100=



Latest METAR

808
SAUS70 KWBC 192100 RRH
MTRVLD
METAR KVLD 192053Z 15005KT 10SM -RA FEW070 OVC110 18/04 A3006 RMK AO2
RAB44 SLP188 P0000 60000 T01780044


USA.gov is the U.S. government's official web portal to all federal, state and local government web resources and services.